Providence, Rhode Island
Traffic Map
Current Weather Conditions
Providence, Rhode Island
Few Clouds
Few Clouds
75°
Feels Like: 75°
Wind Chill: 75° Ceiling: Unl
Heat Index: 75° Visibility: 10mi
Dew Point: 66° Wind: 14mph
Humidity: 73% Direction: 200° (SSW)
Pressure: 29.76in Gusts: 0mph
Raw Report DataKPVD 012351Z 20012KT 10SM FEW045 FEW250 24/19 A2976 RMK AO2 SLP078 T02390189 10272 20239 53009
Traffic Incident Summary
Active as of:
Severity:
Category:
InformationThere was an issue retrieving the traffic information for this location. Please try a different location or try again shortly.
Advertisements
Track Severe Weather on mobile